Time;durP1;ratioP1;P1;durP2;ratioP2;P2;SDS_P1;SDS_P2;PMS_P1;PMS_P2;Temp;Humidity;BMP_temperature;BMP_pressure;BME280_temperature;BME280_humidity;BME280_pressure;Samples;Min_cycle;Max_cycle;Signal;HPM_P1;HPM_P2
2024/04/18 00:00:13;;;;;;;;;;;21.30;37.60;;;;;;3050464;19;4672;-30
2024/04/18 00:01:13;;;;;;;;;;;21.30;37.50;;;;;;3030667;19;4429;-32
2024/04/18 00:02:14;;;;;;;;;;;21.30;37.60;;;;;;3052726;19;4761;-33
2024/04/18 00:03:15;;;;;;;;;;;21.20;37.60;;;;;;3050983;19;4782;-31
2024/04/18 00:04:15;;;;;;;;;;;21.20;37.50;;;;;;3030579;19;4552;-32
2024/04/18 00:05:18;;;;;;;;;;;21.20;37.60;;;;;;3052005;19;4681;-33
2024/04/18 00:06:19;;;;;;;;;;;21.30;37.60;;;;;;3031247;19;4576;-30
2024/04/18 00:07:19;;;;;;;;;;;21.30;37.70;;;;;;3052226;19;4650;-33
2024/04/18 00:08:20;;;;;;;;;;;21.20;37.60;;;;;;3052918;19;4759;-31
2024/04/18 00:09:21;;;;;;;;;;;21.30;37.60;;;;;;3031530;19;4724;-34
2024/04/18 00:10:21;;;;;;;;;;;21.30;37.60;;;;;;3051272;19;4700;-33
2024/04/18 00:11:22;;;;;;;;;;;21.30;37.60;;;;;;3051438;19;4661;-35
2024/04/18 00:12:23;;;;;;;;;;;21.20;37.40;;;;;;3031668;19;4525;-32
2024/04/18 00:13:23;;;;;;;;;;;21.20;37.50;;;;;;3052616;19;4652;-35
2024/04/18 00:14:24;;;;;;;;;;;21.30;37.60;;;;;;3027789;19;4698;-33
2024/04/18 00:15:25;;;;;;;;;;;21.30;37.60;;;;;;3049736;19;4734;-31
2024/04/18 00:16:26;;;;;;;;;;;21.20;37.60;;;;;;3053095;19;4599;-31
2024/04/18 00:17:26;;;;;;;;;;;21.20;37.60;;;;;;3031073;19;4578;-32
2024/04/18 00:18:27;;;;;;;;;;;21.20;37.60;;;;;;3052548;19;4619;-32
2024/04/18 00:19:28;;;;;;;;;;;21.20;37.60;;;;;;3050350;19;4753;-34
2024/04/18 00:20:28;;;;;;;;;;;21.20;37.60;;;;;;3030537;19;4545;-30
2024/04/18 00:21:29;;;;;;;;;;;21.20;37.60;;;;;;3052107;19;4733;-35
2024/04/18 00:22:30;;;;;;;;;;;21.20;37.60;;;;;;3047295;19;5810;-34
2024/04/18 00:23:31;;;;;;;;;;;21.20;37.60;;;;;;3050300;19;4797;-33
2024/04/18 00:24:31;;;;;;;;;;;21.90;37.90;;;;;;3051636;19;4656;-32
2024/04/18 00:25:32;;;;;;;;;;;21.10;37.60;;;;;;3029732;19;4564;-33
2024/04/18 00:26:33;;;;;;;;;;;21.10;37.60;;;;;;3051747;19;4682;-31
2024/04/18 00:27:33;;;;;;;;;;;21.20;37.60;;;;;;3052779;19;4687;-33
2024/04/18 00:28:34;;;;;;;;;;;21.10;37.60;;;;;;3027969;19;4589;-31
2024/04/18 00:29:35;;;;;;;;;;;21.20;37.60;;;;;;3053155;19;4640;-32
2024/04/18 00:30:36;;;;;;;;;;;21.20;37.60;;;;;;3029166;19;4783;-33
2024/04/18 00:31:36;;;;;;;;;;;21.10;37.60;;;;;;3052297;19;4653;-32
2024/04/18 00:32:37;;;;;;;;;;;21.20;37.60;;;;;;3054771;19;4649;-29
2024/04/18 00:33:38;;;;;;;;;;;21.20;37.60;;;;;;3033280;19;4539;-30
2024/04/18 00:34:38;;;;;;;;;;;21.10;37.40;;;;;;3055598;19;4950;-31
2024/04/18 00:35:39;;;;;;;;;;;21.10;37.60;;;;;;3033611;19;4710;-31
2024/04/18 00:36:39;;;;;;;;;;;21.10;37.50;;;;;;3054661;19;4633;-30
2024/04/18 00:37:40;;;;;;;;;;;21.20;37.60;;;;;;3055559;19;4734;-35
2024/04/18 00:38:41;;;;;;;;;;;21.10;37.60;;;;;;3033491;19;4692;-34
2024/04/18 00:39:41;;;;;;;;;;;21.10;37.50;;;;;;3054763;19;4652;-35
2024/04/18 00:40:42;;;;;;;;;;;21.10;37.60;;;;;;3055084;19;4676;-33
2024/04/18 00:41:43;;;;;;;;;;;21.10;37.60;;;;;;3032792;19;4535;-35
2024/04/18 00:42:43;;;;;;;;;;;21.10;37.60;;;;;;3052597;19;4736;-31
2024/04/18 00:43:44;;;;;;;;;;;21.00;37.60;;;;;;3032433;19;4769;-35
2024/04/18 00:44:44;;;;;;;;;;;21.10;37.60;;;;;;3054995;19;4865;-31
2024/04/18 00:45:45;;;;;;;;;;;21.10;37.50;;;;;;3055465;19;4666;-30
2024/04/18 00:46:47;;;;;;;;;;;21.10;37.60;;;;;;3031092;19;4706;-34
2024/04/18 00:47:47;;;;;;;;;;;21.10;37.60;;;;;;3054628;19;4727;-31
2024/04/18 00:48:48;;;;;;;;;;;21.10;37.50;;;;;;3054857;19;4744;-27
2024/04/18 00:49:49;;;;;;;;;;;21.00;37.30;;;;;;3033685;19;4539;-25
2024/04/18 00:50:50;;;;;;;;;;;21.00;37.40;;;;;;3054804;19;4691;-25
2024/04/18 00:51:51;;;;;;;;;;;21.00;37.50;;;;;;3033537;19;4697;-23
2024/04/18 00:52:52;;;;;;;;;;;21.00;37.40;;;;;;3053193;19;4655;-29
2024/04/18 00:53:53;;;;;;;;;;;21.10;37.60;;;;;;3053716;19;4648;-23
2024/04/18 00:54:54;;;;;;;;;;;21.10;37.50;;;;;;3032303;19;4693;-24
2024/04/18 00:55:54;;;;;;;;;;;21.10;37.30;;;;;;3050869;19;4655;-26
2024/04/18 00:56:55;;;;;;;;;;;21.00;37.50;;;;;;3052134;19;4720;-25
2024/04/18 00:57:56;;;;;;;;;;;21.00;37.50;;;;;;3031793;19;4577;-24
2024/04/18 00:58:56;;;;;;;;;;;21.00;37.40;;;;;;3055349;19;4624;-24
2024/04/18 00:59:57;;;;;;;;;;;21.10;37.50;;;;;;3031858;19;4638;-24
2024/04/18 01:00:57;;;;;;;;;;;21.00;37.50;;;;;;3054158;19;4646;-25
2024/04/18 01:01:58;;;;;;;;;;;21.00;38.10;;;;;;3053521;19;4658;-23
2024/04/18 01:02:59;;;;;;;;;;;21.00;37.40;;;;;;3031732;19;4613;-23
2024/04/18 01:04:00;;;;;;;;;;;21.00;37.40;;;;;;3051779;19;4682;-25
2024/04/18 01:05:00;;;;;;;;;;;21.00;37.40;;;;;;3033339;19;4620;-24
2024/04/18 01:06:01;;;;;;;;;;;21.00;37.50;;;;;;3053489;19;4638;-24
2024/04/18 01:07:01;;;;;;;;;;;21.00;37.40;;;;;;3055158;19;4677;-25
2024/04/18 01:08:03;;;;;;;;;;;21.00;37.40;;;;;;3033167;19;4666;-26
2024/04/18 01:09:03;;;;;;;;;;;21.00;37.40;;;;;;3055033;19;4595;-25
2024/04/18 01:10:04;;;;;;;;;;;21.00;37.40;;;;;;3054937;19;4591;-25
2024/04/18 01:11:05;;;;;;;;;;;21.00;37.40;;;;;;3032784;19;4685;-23
2024/04/18 01:12:05;;;;;;;;;;;21.00;37.50;;;;;;3053436;19;4550;-24
2024/04/18 01:13:06;;;;;;;;;;;21.00;37.40;;;;;;3033524;19;4535;-25
2024/04/18 01:14:10;;;;;;;;;;;21.00;37.30;;;;;;3054787;19;4789;-26
2024/04/18 01:15:11;;;;;;;;;;;20.90;37.50;;;;;;3053764;19;2118;-23
2024/04/18 01:16:11;;;;;;;;;;;21.00;37.50;;;;;;3032527;19;4621;-25
2024/04/18 01:17:12;;;;;;;;;;;20.90;37.50;;;;;;3054135;19;4644;-24
2024/04/18 01:18:12;;;;;;;;;;;20.90;37.50;;;;;;3055025;19;4734;-25
2024/04/18 01:19:17;;;;;;;;;;;21.00;37.50;;;;;;3032314;19;4680;-23
2024/04/18 01:20:17;;;;;;;;;;;20.90;37.50;;;;;;3053999;19;4699;-23
2024/04/18 01:21:18;;;;;;;;;;;20.90;37.50;;;;;;3031094;19;4644;-24
2024/04/18 01:22:19;;;;;;;;;;;20.90;37.60;;;;;;3053116;19;4838;-24
2024/04/18 01:23:19;;;;;;;;;;;20.90;37.50;;;;;;3051639;19;4723;-25
2024/04/18 01:24:20;;;;;;;;;;;20.90;37.50;;;;;;3030843;19;4665;-24
2024/04/18 01:25:20;;;;;;;;;;;20.90;37.50;;;;;;3053553;19;4697;-24
2024/04/18 01:26:21;;;;;;;;;;;20.90;37.50;;;;;;3049955;19;5810;-27
2024/04/18 01:27:22;;;;;;;;;;;20.90;37.50;;;;;;3052342;19;4859;-25
2024/04/18 01:28:22;;;;;;;;;;;20.90;37.40;;;;;;3053361;19;4936;-24
2024/04/18 01:29:23;;;;;;;;;;;20.90;37.60;;;;;;3033426;19;4538;-25
2024/04/18 01:30:23;;;;;;;;;;;20.90;37.50;;;;;;3052321;19;4686;-23
2024/04/18 01:31:24;;;;;;;;;;;20.90;37.60;;;;;;3054501;19;4699;-24
2024/04/18 01:32:25;;;;;;;;;;;20.90;37.70;;;;;;3032879;19;4709;-24
2024/04/18 01:33:26;;;;;;;;;;;20.90;37.60;;;;;;3054621;19;4687;-27
2024/04/18 01:34:26;;;;;;;;;;;20.90;37.60;;;;;;3047232;19;4367;-23
2024/04/18 01:35:27;;;;;;;;;;;20.90;37.60;;;;;;3054686;19;4783;-24
2024/04/18 01:36:28;;;;;;;;;;;20.90;37.80;;;;;;3054863;19;4730;-23
2024/04/18 01:37:28;;;;;;;;;;;20.90;37.70;;;;;;3033704;19;4661;-25
2024/04/18 01:38:29;;;;;;;;;;;20.90;37.70;;;;;;3054685;19;4648;-24
2024/04/18 01:39:30;;;;;;;;;;;20.90;37.60;;;;;;3053905;19;4741;-24
2024/04/18 01:40:30;;;;;;;;;;;20.90;37.70;;;;;;3030761;19;4764;-26
2024/04/18 01:41:31;;;;;;;;;;;20.90;37.60;;;;;;3054226;19;5187;-24
2024/04/18 01:42:31;;;;;;;;;;;20.80;37.50;;;;;;3030667;19;4726;-24
2024/04/18 01:43:32;;;;;;;;;;;20.80;37.60;;;;;;3051905;19;4835;-23
2024/04/18 01:44:33;;;;;;;;;;;20.80;37.70;;;;;;3053809;19;4680;-27
2024/04/18 01:45:37;;;;;;;;;;;20.80;37.60;;;;;;3032313;19;4586;-23
2024/04/18 01:46:39;;;;;;;;;;;20.80;37.60;;;;;;3052733;19;4726;-24
2024/04/18 01:47:39;;;;;;;;;;;20.80;37.80;;;;;;3032319;19;4686;-25
2024/04/18 01:48:41;;;;;;;;;;;20.80;37.70;;;;;;3054007;19;4690;-24
2024/04/18 01:49:43;;;;;;;;;;;20.80;37.60;;;;;;3054029;19;4687;-30
2024/04/18 01:50:44;;;;;;;;;;;20.80;37.60;;;;;;3031125;19;4653;-33
2024/04/18 01:51:46;;;;;;;;;;;20.80;38.00;;;;;;3053657;19;4651;-31
2024/04/18 01:52:47;;;;;;;;;;;20.80;37.80;;;;;;3052797;19;4724;-32
2024/04/18 01:53:48;;;;;;;;;;;20.80;37.50;;;;;;3032027;19;4488;-34
2024/04/18 01:54:48;;;;;;;;;;;20.80;37.60;;;;;;3053146;19;4652;-33
2024/04/18 01:55:49;;;;;;;;;;;20.80;37.70;;;;;;3033463;19;4736;-32
2024/04/18 01:56:50;;;;;;;;;;;20.80;37.70;;;;;;3053270;19;4721;-32
2024/04/18 01:57:50;;;;;;;;;;;20.80;37.80;;;;;;3051511;19;4793;-31
2024/04/18 01:58:51;;;;;;;;;;;20.80;37.80;;;;;;3032845;19;4705;-30
2024/04/18 01:59:51;;;;;;;;;;;20.80;37.70;;;;;;3051966;19;4628;-35
2024/04/18 02:00:52;;;;;;;;;;;20.80;37.90;;;;;;3050875;19;4671;-33
2024/04/18 02:01:53;;;;;;;;;;;20.80;37.90;;;;;;3032477;19;4490;-31
2024/04/18 02:02:54;;;;;;;;;;;20.80;37.80;;;;;;3053734;19;4661;-31
2024/04/18 02:03:55;;;;;;;;;;;20.80;37.80;;;;;;3033111;19;4644;-31
2024/04/18 02:04:55;;;;;;;;;;;20.80;37.80;;;;;;3054220;19;4635;-33
2024/04/18 02:05:56;;;;;;;;;;;20.70;37.60;;;;;;3054527;19;4631;-32
2024/04/18 02:06:57;;;;;;;;;;;20.70;37.70;;;;;;3032245;19;4804;-32
2024/04/18 02:07:57;;;;;;;;;;;20.70;37.70;;;;;;3054669;19;4665;-30
2024/04/18 02:08:58;;;;;;;;;;;20.80;37.80;;;;;;3030887;19;4643;-33
2024/04/18 02:09:58;;;;;;;;;;;20.80;37.80;;;;;;3054476;19;4597;-29
2024/04/18 02:11:00;;;;;;;;;;;20.70;37.70;;;;;;3054369;19;4582;-33
2024/04/18 02:12:00;;;;;;;;;;;20.80;37.80;;;;;;3033352;19;4628;-34
2024/04/18 02:13:01;;;;;;;;;;;20.70;37.80;;;;;;3052288;19;4597;-31
2024/04/18 02:14:02;;;;;;;;;;;20.70;37.80;;;;;;3054117;19;4584;-32
2024/04/18 02:15:02;;;;;;;;;;;20.70;37.70;;;;;;3028416;19;4579;-34
2024/04/18 02:16:03;;;;;;;;;;;20.70;37.80;;;;;;3053907;19;4628;-33
2024/04/18 02:17:04;;;;;;;;;;;20.70;37.80;;;;;;3031534;19;4575;-31
2024/04/18 02:18:05;;;;;;;;;;;20.70;37.80;;;;;;3052071;19;4623;-33
2024/04/18 02:19:05;;;;;;;;;;;20.70;37.80;;;;;;3053368;19;4563;-32
2024/04/18 02:20:06;;;;;;;;;;;20.70;37.70;;;;;;3031642;19;12949;-31
2024/04/18 02:21:07;;;;;;;;;;;20.70;37.90;;;;;;3052574;19;4576;-33
2024/04/18 02:22:07;;;;;;;;;;;20.70;37.80;;;;;;3054255;19;4727;-32
2024/04/18 02:23:08;;;;;;;;;;;20.70;37.90;;;;;;3031861;19;4653;-32
2024/04/18 02:24:08;;;;;;;;;;;20.70;37.90;;;;;;3054638;19;1106;-33
2024/04/18 02:25:09;;;;;;;;;;;20.70;37.70;;;;;;3029860;19;4585;-31
2024/04/18 02:26:10;;;;;;;;;;;20.70;37.90;;;;;;3053204;19;4772;-33
2024/04/18 02:27:10;;;;;;;;;;;20.70;38.00;;;;;;3053504;19;4702;-32
2024/04/18 02:28:11;;;;;;;;;;;20.60;37.90;;;;;;3031806;19;4676;-29
2024/04/18 02:29:12;;;;;;;;;;;20.70;38.60;;;;;;3052236;19;4665;-31
2024/04/18 02:30:12;;;;;;;;;;;20.70;37.90;;;;;;3052248;19;4754;-31
2024/04/18 02:31:13;;;;;;;;;;;20.60;37.80;;;;;;3031453;19;4631;-31
2024/04/18 02:32:14;;;;;;;;;;;20.70;37.90;;;;;;3054147;19;4626;-34
2024/04/18 02:33:15;;;;;;;;;;;20.60;37.90;;;;;;3031567;19;4512;-34
2024/04/18 02:34:15;;;;;;;;;;;20.60;37.90;;;;;;3050969;19;4689;-33
2024/04/18 02:35:16;;;;;;;;;;;20.70;38.00;;;;;;3052509;19;4873;-29
2024/04/18 02:36:17;;;;;;;;;;;20.70;38.00;;;;;;3029291;19;4599;-32
2024/04/18 02:37:18;;;;;;;;;;;20.70;38.10;;;;;;3051558;19;4654;-33
2024/04/18 02:38:18;;;;;;;;;;;20.70;38.20;;;;;;3030958;19;4660;-33
2024/04/18 02:39:19;;;;;;;;;;;20.70;38.10;;;;;;3053436;19;4911;-30
2024/04/18 02:40:20;;;;;;;;;;;20.80;38.20;;;;;;3052740;19;4713;-34
2024/04/18 02:41:20;;;;;;;;;;;20.90;38.10;;;;;;3031708;19;4668;-33
2024/04/18 02:42:21;;;;;;;;;;;20.90;38.00;;;;;;3053795;19;4687;-31
2024/04/18 02:43:21;;;;;;;;;;;21.00;38.00;;;;;;3051321;19;4850;-33
2024/04/18 02:44:23;;;;;;;;;;;21.00;38.00;;;;;;3032073;19;4544;-34
2024/04/18 02:45:24;;;;;;;;;;;21.00;37.80;;;;;;3050119;19;4702;-30
2024/04/18 02:46:24;;;;;;;;;;;21.10;37.90;;;;;;3047675;19;5755;-34
2024/04/18 02:47:25;;;;;;;;;;;21.10;37.80;;;;;;3053978;19;4727;-33
2024/04/18 02:48:26;;;;;;;;;;;21.10;37.80;;;;;;3053755;19;4619;-32
2024/04/18 02:49:27;;;;;;;;;;;21.10;37.80;;;;;;3033075;19;4637;-25
2024/04/18 02:50:27;;;;;;;;;;;21.10;37.80;;;;;;3052539;19;4661;-24
2024/04/18 02:51:28;;;;;;;;;;;21.10;37.80;;;;;;3053328;19;4677;-24
2024/04/18 02:52:28;;;;;;;;;;;21.10;37.70;;;;;;3031524;19;4651;-23
2024/04/18 02:53:29;;;;;;;;;;;21.10;37.70;;;;;;3053643;19;4684;-25
2024/04/18 02:54:30;;;;;;;;;;;21.10;37.50;;;;;;3032390;19;4684;-25
2024/04/18 02:55:30;;;;;;;;;;;21.20;37.50;;;;;;3052062;19;4674;-25
2024/04/18 02:56:31;;;;;;;;;;;21.20;37.50;;;;;;3052012;19;4649;-27
2024/04/18 02:57:32;;;;;;;;;;;21.20;37.40;;;;;;3031717;19;4641;-23
2024/04/18 02:58:32;;;;;;;;;;;21.30;37.50;;;;;;3052548;19;4633;-24
2024/04/18 02:59:33;;;;;;;;;;;21.30;37.50;;;;;;3052646;19;4746;-26
2024/04/18 03:00:37;;;;;;;;;;;21.30;37.40;;;;;;3029013;19;4635;-25
2024/04/18 03:01:37;;;;;;;;;;;21.30;37.40;;;;;;3052810;19;4681;-23
2024/04/18 03:02:38;;;;;;;;;;;21.30;37.40;;;;;;3031382;19;4640;-25
2024/04/18 03:03:39;;;;;;;;;;;21.30;37.40;;;;;;3053797;19;4671;-23
2024/04/18 03:04:39;;;;;;;;;;;21.30;37.40;;;;;;3053127;19;4908;-25
2024/04/18 03:05:40;;;;;;;;;;;21.30;37.50;;;;;;3032173;19;4554;-24
2024/04/18 03:06:41;;;;;;;;;;;21.30;37.40;;;;;;3052440;19;4710;-26
2024/04/18 03:07:41;;;;;;;;;;;21.30;37.30;;;;;;3030810;19;4683;-32
2024/04/18 03:08:43;;;;;;;;;;;21.30;37.20;;;;;;3052519;19;4664;-25
2024/04/18 03:09:43;;;;;;;;;;;21.40;37.20;;;;;;3048923;19;4711;-26
2024/04/18 03:10:51;;;;;;;;;;;21.40;37.10;;;;;;3029399;19;4702;-25
2024/04/18 03:11:52;;;;;;;;;;;21.40;37.10;;;;;;3050450;19;4729;-25
2024/04/18 03:12:53;;;;;;;;;;;21.40;37.10;;;;;;3051619;19;4803;-23
2024/04/18 03:13:54;;;;;;;;;;;21.50;37.20;;;;;;3029175;19;4622;-27
2024/04/18 03:14:54;;;;;;;;;;;21.40;37.00;;;;;;3051992;19;4695;-23
2024/04/18 03:15:55;;;;;;;;;;;21.40;37.00;;;;;;3031092;19;4631;-23
2024/04/18 03:16:56;;;;;;;;;;;21.40;37.00;;;;;;3052243;19;4673;-23
2024/04/18 03:17:58;;;;;;;;;;;21.50;37.80;;;;;;3053579;19;4658;-23
2024/04/18 03:18:59;;;;;;;;;;;21.40;37.10;;;;;;3032295;19;4639;-24
2024/04/18 03:20:00;;;;;;;;;;;21.40;37.10;;;;;;3052487;19;4709;-24
2024/04/18 03:21:00;;;;;;;;;;;21.50;37.10;;;;;;3030651;19;4613;-24
2024/04/18 03:22:01;;;;;;;;;;;21.40;37.10;;;;;;3052948;19;4656;-23
2024/04/18 03:23:02;;;;;;;;;;;21.40;37.00;;;;;;3049748;19;4721;-24
2024/04/18 03:24:18;;;;;;;;;;;21.40;37.00;;;;;;3030810;19;5327;-25
2024/04/18 03:25:19;;;;;;;;;;;21.40;37.10;;;;;;2950375;19;2004741;-25
2024/04/18 03:26:20;;;;;;;;;;;21.40;37.00;;;;;;3031824;19;4743;-26
2024/04/18 03:27:20;;;;;;;;;;;21.40;37.10;;;;;;3052975;19;4795;-24
2024/04/18 03:28:21;;;;;;;;;;;21.40;37.00;;;;;;3051797;19;4921;-23
2024/04/18 03:29:21;;;;;;;;;;;21.40;37.00;;;;;;3032319;19;4582;-25
2024/04/18 03:30:22;;;;;;;;;;;21.50;37.10;;;;;;3053643;19;4735;-24
2024/04/18 03:31:23;;;;;;;;;;;21.40;37.00;;;;;;3052320;19;4868;-25
2024/04/18 03:32:23;;;;;;;;;;;21.40;37.00;;;;;;3031215;19;4507;-24
2024/04/18 03:33:24;;;;;;;;;;;21.40;37.00;;;;;;3052375;19;4735;-26
2024/04/18 03:34:25;;;;;;;;;;;21.40;37.10;;;;;;3030179;19;4723;-24
2024/04/18 03:35:25;;;;;;;;;;;21.40;37.00;;;;;;3052766;19;4722;-27
2024/04/18 03:36:26;;;;;;;;;;;21.40;37.00;;;;;;3053081;19;4751;-24
2024/04/18 03:37:26;;;;;;;;;;;21.40;37.00;;;;;;3031617;19;4595;-24
2024/04/18 03:38:27;;;;;;;;;;;21.40;37.00;;;;;;3053043;19;4727;-24
2024/04/18 03:39:28;;;;;;;;;;;21.40;37.00;;;;;;3051691;19;4813;-26
2024/04/18 03:40:28;;;;;;;;;;;21.40;37.00;;;;;;3031304;19;4771;-24
2024/04/18 03:41:29;;;;;;;;;;;21.40;37.00;;;;;;3052150;19;4761;-24
2024/04/18 03:42:30;;;;;;;;;;;21.40;37.00;;;;;;3030342;19;4731;-25
2024/04/18 03:43:30;;;;;;;;;;;21.40;37.00;;;;;;3052185;19;4767;-25
2024/04/18 03:44:31;;;;;;;;;;;21.40;37.00;;;;;;3052960;19;4696;-26
2024/04/18 03:45:32;;;;;;;;;;;21.40;37.10;;;;;;3031341;19;4527;-26
2024/04/18 03:46:32;;;;;;;;;;;21.50;37.10;;;;;;3052964;19;4652;-25
2024/04/18 03:47:33;;;;;;;;;;;21.60;37.10;;;;;;3053650;19;4663;-24
2024/04/18 03:48:33;;;;;;;;;;;21.50;37.00;;;;;;3030396;19;4602;-24
2024/04/18 03:49:34;;;;;;;;;;;21.60;37.00;;;;;;3051937;19;4770;-24
2024/04/18 03:50:35;;;;;;;;;;;21.60;36.90;;;;;;3047546;19;5760;-24
2024/04/18 03:51:35;;;;;;;;;;;21.70;36.80;;;;;;3051345;19;4795;-24
2024/04/18 03:52:37;;;;;;;;;;;21.70;36.80;;;;;;3052218;19;4660;-25
2024/04/18 03:53:37;;;;;;;;;;;21.70;36.70;;;;;;3030793;19;4578;-25
2024/04/18 03:54:38;;;;;;;;;;;21.70;36.50;;;;;;3051425;19;4707;-24
2024/04/18 03:55:38;;;;;;;;;;;21.80;36.60;;;;;;3030247;19;4664;-26
2024/04/18 03:56:39;;;;;;;;;;;21.80;36.40;;;;;;3050939;19;4630;-24
2024/04/18 03:57:40;;;;;;;;;;;21.80;36.40;;;;;;3051330;19;4645;-24
2024/04/18 03:58:40;;;;;;;;;;;21.80;36.30;;;;;;3031198;19;4879;-27
2024/04/18 03:59:41;;;;;;;;;;;21.80;36.30;;;;;;3053120;19;4712;-26
2024/04/18 04:00:42;;;;;;;;;;;21.80;36.30;;;;;;3053171;19;4682;-24
2024/04/18 04:01:42;;;;;;;;;;;21.80;36.30;;;;;;3030882;19;4606;-25
2024/04/18 04:02:43;;;;;;;;;;;21.80;36.30;;;;;;3052586;19;4791;-25
2024/04/18 04:03:44;;;;;;;;;;;21.80;36.30;;;;;;3031539;19;4628;-24
2024/04/18 04:04:48;;;;;;;;;;;21.80;36.30;;;;;;3053122;19;4815;-24
2024/04/18 04:05:48;;;;;;;;;;;21.70;36.20;;;;;;3053058;19;4682;-25
2024/04/18 04:06:49;;;;;;;;;;;21.70;36.30;;;;;;3036699;19;4651;-25
2024/04/18 04:07:49;;;;;;;;;;;21.70;36.30;;;;;;3057531;19;4689;-23
2024/04/18 04:08:50;;;;;;;;;;;21.70;36.40;;;;;;3057267;19;4668;-24
2024/04/18 04:09:51;;;;;;;;;;;21.70;36.40;;;;;;3036166;19;4550;-24
2024/04/18 04:10:51;;;;;;;;;;;21.70;36.40;;;;;;3058705;19;4642;-24
2024/04/18 04:11:52;;;;;;;;;;;21.70;36.40;;;;;;3036553;19;4649;-24
2024/04/18 04:12:52;;;;;;;;;;;21.60;36.50;;;;;;3057462;19;4670;-27
2024/04/18 04:13:53;;;;;;;;;;;21.60;36.50;;;;;;3058629;19;4655;-24
2024/04/18 04:14:54;;;;;;;;;;;21.60;36.50;;;;;;3035347;19;4771;-24
2024/04/18 04:15:55;;;;;;;;;;;21.60;36.70;;;;;;3058718;19;4650;-26
2024/04/18 04:16:56;;;;;;;;;;;21.60;36.60;;;;;;3051646;19;4734;-26
2024/04/18 04:17:57;;;;;;;;;;;21.60;36.60;;;;;;3050461;19;4654;-24
2024/04/18 04:18:57;;;;;;;;;;;21.60;36.70;;;;;;3057172;19;4612;-23
2024/04/18 04:19:58;;;;;;;;;;;21.50;36.60;;;;;;3036752;19;4802;-24
2024/04/18 04:20:58;;;;;;;;;;;21.50;36.70;;;;;;3058647;19;5110;-24
2024/04/18 04:21:59;;;;;;;;;;;21.50;36.90;;;;;;3056505;19;4620;-23
2024/04/18 04:23:00;;;;;;;;;;;21.50;37.70;;;;;;3035959;19;4923;-24
2024/04/18 04:24:00;;;;;;;;;;;21.60;37.10;;;;;;3058733;19;4672;-24
2024/04/18 04:25:01;;;;;;;;;;;21.60;36.90;;;;;;3036320;19;4631;-26
2024/04/18 04:26:01;;;;;;;;;;;21.70;37.00;;;;;;3058085;19;4615;-25
2024/04/18 04:27:02;;;;;;;;;;;21.70;36.90;;;;;;3058354;19;4634;-24
2024/04/18 04:28:03;;;;;;;;;;;21.70;36.80;;;;;;3037142;19;4672;-26
2024/04/18 04:29:04;;;;;;;;;;;21.70;36.80;;;;;;3057592;19;4612;-26
2024/04/18 04:30:05;;;;;;;;;;;21.70;36.80;;;;;;3058824;19;4689;-26
2024/04/18 04:31:05;;;;;;;;;;;21.70;36.60;;;;;;3036101;19;4589;-23
2024/04/18 04:32:20;;;;;;;;;;;21.80;37.20;;;;;;3057187;19;20857;-25
2024/04/18 04:33:21;;;;;;;;;;;21.80;36.50;;;;;;3035262;19;4770;-26
2024/04/18 04:34:21;;;;;;;;;;;21.80;36.40;;;;;;3056212;19;4770;-25
2024/04/18 04:35:22;;;;;;;;;;;22.60;36.90;;;;;;3055918;19;4898;-24
2024/04/18 04:36:23;;;;;;;;;;;21.80;36.40;;;;;;3036273;19;4568;-23
2024/04/18 04:37:23;;;;;;;;;;;21.80;36.40;;;;;;3057812;19;4740;-25
2024/04/18 04:38:24;;;;;;;;;;;21.80;36.40;;;;;;3036816;19;4722;-28
2024/04/18 04:39:25;;;;;;;;;;;21.70;36.50;;;;;;3057672;19;4641;-24
2024/04/18 04:40:25;;;;;;;;;;;21.70;36.50;;;;;;3058028;19;4706;-26
2024/04/18 04:41:26;;;;;;;;;;;21.70;36.60;;;;;;3034805;19;4567;-27
2024/04/18 04:42:26;;;;;;;;;;;21.60;37.20;;;;;;3057857;19;4699;-24
2024/04/18 04:43:27;;;;;;;;;;;21.70;36.70;;;;;;3057176;19;4837;-24
2024/04/18 04:44:28;;;;;;;;;;;21.70;36.70;;;;;;3036579;19;4719;-24
2024/04/18 04:45:28;;;;;;;;;;;21.60;36.70;;;;;;3057588;19;4695;-24
2024/04/18 04:46:29;;;;;;;;;;;21.60;36.70;;;;;;3036797;19;4702;-26
2024/04/18 04:47:30;;;;;;;;;;;21.60;36.70;;;;;;3055667;19;4777;-25
2024/04/18 04:48:31;;;;;;;;;;;21.60;36.80;;;;;;3056602;19;4654;-24
2024/04/18 04:49:31;;;;;;;;;;;21.60;36.90;;;;;;3036230;19;4585;-26
2024/04/18 04:50:32;;;;;;;;;;;21.30;36.80;;;;;;3057789;19;4701;-25
2024/04/18 04:51:32;;;;;;;;;;;21.60;37.00;;;;;;3058976;19;4700;-23
2024/04/18 04:52:33;;;;;;;;;;;21.60;36.90;;;;;;3035361;19;4629;-26
2024/04/18 04:53:34;;;;;;;;;;;21.70;36.90;;;;;;3057925;19;4727;-25
2024/04/18 04:54:36;;;;;;;;;;;21.80;36.80;;;;;;3036789;19;4792;-24
2024/04/18 04:55:37;;;;;;;;;;;21.80;36.80;;;;;;3057587;19;4702;-25
2024/04/18 04:56:38;;;;;;;;;;;21.80;36.70;;;;;;3058281;19;4727;-25
2024/04/18 04:57:38;;;;;;;;;;;21.80;36.70;;;;;;3036148;19;4506;-26
2024/04/18 04:58:39;;;;;;;;;;;21.80;36.70;;;;;;3056751;19;4749;-26
2024/04/18 04:59:39;;;;;;;;;;;21.80;36.70;;;;;;3036313;19;4669;-23
2024/04/18 05:00:40;;;;;;;;;;;21.80;36.60;;;;;;3057540;19;4730;-24
2024/04/18 05:01:41;;;;;;;;;;;21.80;36.60;;;;;;3057557;19;4679;-23
2024/04/18 05:02:41;;;;;;;;;;;21.80;36.50;;;;;;3035587;19;4703;-25
2024/04/18 05:03:42;;;;;;;;;;;21.80;36.50;;;;;;3058237;19;4714;-24
2024/04/18 05:04:42;;;;;;;;;;;21.80;36.50;;;;;;3057201;19;4676;-28
2024/04/18 05:05:43;;;;;;;;;;;21.80;36.50;;;;;;3036601;19;4573;-26
2024/04/18 05:06:44;;;;;;;;;;;21.80;36.50;;;;;;3058272;19;4623;-24
2024/04/18 05:07:45;;;;;;;;;;;22.50;36.90;;;;;;3033077;19;4653;-26
2024/04/18 05:08:45;;;;;;;;;;;22.00;36.50;;;;;;3053098;19;4669;-25
2024/04/18 05:09:46;;;;;;;;;;;21.80;36.40;;;;;;3055030;19;4665;-32
2024/04/18 05:10:46;;;;;;;;;;;21.80;36.40;;;;;;3033951;19;4634;-35
2024/04/18 05:11:47;;;;;;;;;;;21.80;36.40;;;;;;3057919;19;4670;-32
2024/04/18 05:12:48;;;;;;;;;;;21.80;36.40;;;;;;3057644;19;4649;-34
2024/04/18 05:13:49;;;;;;;;;;;21.80;36.50;;;;;;3035977;19;4570;-32
2024/04/18 05:14:50;;;;;;;;;;;21.80;36.50;;;;;;3056638;19;4613;-32
2024/04/18 05:15:50;;;;;;;;;;;21.80;36.50;;;;;;3035139;19;4682;-31
2024/04/18 05:16:51;;;;;;;;;;;21.80;36.50;;;;;;3056307;19;4632;-31
2024/04/18 05:17:52;;;;;;;;;;;21.80;36.50;;;;;;3053738;19;4783;-34
2024/04/18 05:18:52;;;;;;;;;;;21.80;36.50;;;;;;3031773;19;4667;-33
2024/04/18 05:19:53;;;;;;;;;;;21.80;36.50;;;;;;3053863;19;4661;-34
2024/04/18 05:20:53;;;;;;;;;;;21.80;36.40;;;;;;3053425;19;4885;-33
2024/04/18 05:21:54;;;;;;;;;;;21.80;36.50;;;;;;3030733;19;4554;-33
2024/04/18 05:22:55;;;;;;;;;;;21.80;36.50;;;;;;3052411;19;4779;-33
2024/04/18 05:23:55;;;;;;;;;;;21.80;36.60;;;;;;3031526;19;4659;-31
2024/04/18 05:24:56;;;;;;;;;;;21.80;36.60;;;;;;3054590;19;4641;-34
2024/04/18 05:25:56;;;;;;;;;;;21.70;36.70;;;;;;3052787;19;4679;-31
2024/04/18 05:26:57;;;;;;;;;;;21.80;36.80;;;;;;3030738;19;4686;-33
2024/04/18 05:28:10;;;;;;;;;;;21.80;36.70;;;;;;3053989;19;4586;-34
2024/04/18 05:31:49;;;;;;;;;;;21.90;36.50;;;;;;3032525;19;4734;-23
2024/04/18 05:32:50;;;;;;;;;;;22.00;36.60;;;;;;3054850;19;4644;-24
2024/04/18 05:33:50;;;;;;;;;;;22.00;36.50;;;;;;3051185;19;4651;-24
2024/04/18 05:34:51;;;;;;;;;;;23.80;37.40;;;;;;3031374;19;4682;-25
2024/04/18 05:35:52;;;;;;;;;;;22.00;36.40;;;;;;3053148;19;4723;-24
2024/04/18 05:36:52;;;;;;;;;;;22.00;36.40;;;;;;3053688;19;4698;-24
2024/04/18 05:37:53;;;;;;;;;;;22.00;36.30;;;;;;3030091;19;4751;-26
2024/04/18 05:38:54;;;;;;;;;;;22.00;36.40;;;;;;3051181;19;4645;-24
2024/04/18 05:39:54;;;;;;;;;;;22.00;36.30;;;;;;3031330;19;4760;-26
2024/04/18 05:40:55;;;;;;;;;;;22.00;36.40;;;;;;3050648;19;4676;-23
2024/04/18 05:41:56;;;;;;;;;;;22.00;36.50;;;;;;3053636;19;4774;-24
2024/04/18 05:42:56;;;;;;;;;;;22.00;36.50;;;;;;3042917;19;5895;-25
2024/04/18 05:43:57;;;;;;;;;;;21.90;36.50;;;;;;3051328;19;4791;-23
2024/04/18 05:44:58;;;;;;;;;;;21.90;36.50;;;;;;3032121;19;4612;-24
2024/04/18 05:45:58;;;;;;;;;;;21.90;36.50;;;;;;3053215;19;4656;-25
2024/04/18 05:46:59;;;;;;;;;;;21.90;36.60;;;;;;3053850;19;4672;-24
2024/04/18 05:47:59;;;;;;;;;;;21.80;36.60;;;;;;3032916;19;4698;-24
2024/04/18 05:49:00;;;;;;;;;;;21.80;36.70;;;;;;3054598;19;4625;-27
2024/04/18 05:50:01;;;;;;;;;;;21.80;36.80;;;;;;3054225;19;4619;-26
2024/04/18 05:51:01;;;;;;;;;;;21.80;36.80;;;;;;3048429;19;5853;-24
2024/04/18 05:52:02;;;;;;;;;;;21.80;36.90;;;;;;3053078;19;4624;-24
2024/04/18 05:53:04;;;;;;;;;;;21.70;36.80;;;;;;3032889;19;4749;-25
2024/04/18 05:54:04;;;;;;;;;;;21.70;36.80;;;;;;3054621;19;4638;-24
2024/04/18 05:55:05;;;;;;;;;;;21.70;36.90;;;;;;3054022;19;4558;-23
2024/04/18 05:56:06;;;;;;;;;;;21.70;37.00;;;;;;3032681;19;7276;-28
2024/04/18 05:57:07;;;;;;;;;;;21.70;37.10;;;;;;3054093;19;4636;-24
2024/04/18 05:58:08;;;;;;;;;;;21.70;37.10;;;;;;3052763;19;4647;-24
2024/04/18 05:59:09;;;;;;;;;;;21.70;37.10;;;;;;3031110;19;4545;-25
2024/04/18 06:00:11;;;;;;;;;;;21.80;37.00;;;;;;3048369;19;4743;-23
2024/04/18 06:01:12;;;;;;;;;;;21.80;36.90;;;;;;3029304;19;4492;-25
2024/04/18 06:02:12;;;;;;;;;;;21.90;36.90;;;;;;3050791;19;4676;-26